createdAt,value
2023-08-12T00:01:53.677Z,101035.84
2023-08-12T00:04:24.360Z,101033.69
2023-08-12T00:06:55.200Z,101034.73
2023-08-12T00:09:26.210Z,101033.02
2023-08-12T00:11:57.248Z,101029.34
2023-08-12T00:14:27.949Z,101031.16
2023-08-12T00:16:59.092Z,101033.27
2023-08-12T00:19:29.728Z,101030.16
2023-08-12T00:22:01.238Z,101030.15
2023-08-12T00:24:31.869Z,101030.64
2023-08-12T00:27:02.601Z,101028.41
2023-08-12T00:29:33.252Z,101026.50
2023-08-12T00:32:04.527Z,101024.31
2023-08-12T00:34:35.629Z,101020.79
2023-08-12T00:37:07.088Z,101022.74
2023-08-12T00:39:37.798Z,101019.69
2023-08-12T00:42:08.819Z,101015.27
2023-08-12T00:44:39.559Z,101015.05
2023-08-12T00:47:11.372Z,101011.41
2023-08-12T00:49:44.953Z,101008.09
2023-08-12T00:52:16.920Z,101008.62
2023-08-12T00:54:48.550Z,101007.09
2023-08-12T00:57:19.205Z,101005.48
2023-08-12T00:59:51.372Z,101007.81
2023-08-12T01:02:22.097Z,101002.52
2023-08-12T01:04:52.721Z,101000.40
2023-08-12T01:07:23.548Z,100998.17
2023-08-12T01:09:54.810Z,100996.08
2023-08-12T01:12:29.408Z,100994.91
2023-08-12T01:15:09.533Z,100993.65
2023-08-12T01:17:43.984Z,100992.81
2023-08-12T01:20:16.250Z,100989.27
2023-08-12T01:22:48.569Z,100988.95
2023-08-12T01:25:19.471Z,100986.11
2023-08-12T01:27:50.212Z,100982.95
2023-08-12T01:30:23.909Z,100979.25
2023-08-12T01:33:00.084Z,100972.92
2023-08-12T01:35:37.492Z,100971.25
2023-08-12T01:38:10.859Z,100970.53
2023-08-12T01:40:43.785Z,100969.12
2023-08-12T01:43:15.320Z,100970.22
2023-08-12T01:45:46.633Z,100963.61
2023-08-12T01:48:17.291Z,100965.19
2023-08-12T01:50:49.024Z,100961.54
2023-08-12T01:53:20.388Z,100958.92
2023-08-12T01:55:52.644Z,100955.86
2023-08-12T01:58:23.292Z,100953.32
2023-08-12T02:00:53.866Z,100956.69
2023-08-12T02:03:24.635Z,100952.92
2023-08-12T02:05:55.647Z,100949.34
2023-08-12T02:08:26.957Z,100946.11
2023-08-12T02:10:57.615Z,100943.98
2023-08-12T02:13:28.992Z,100937.48
2023-08-12T02:15:59.837Z,100934.51
2023-08-12T02:18:30.776Z,100933.19
2023-08-12T02:21:01.871Z,100929.63
2023-08-12T02:23:32.464Z,100929.12
2023-08-12T02:26:03.972Z,100927.54
2023-08-12T02:28:34.486Z,100924.92
2023-08-12T02:31:05.225Z,100926.92
2023-08-12T02:33:36.185Z,100925.45
2023-08-12T02:36:08.064Z,100917.95
2023-08-12T02:38:38.752Z,100914.14
2023-08-12T02:41:09.452Z,100912.59
2023-08-12T02:43:40.693Z,100913.52
2023-08-12T02:46:11.374Z,100913.08
2023-08-12T02:48:42.393Z,100910.06
2023-08-12T02:51:13.020Z,100905.06
2023-08-12T02:53:44.046Z,100907.98
2023-08-12T02:56:15.027Z,100904.43
2023-08-12T02:58:46.289Z,100903.48
2023-08-12T03:01:17.230Z,100901.45
2023-08-12T03:03:48.029Z,100896.68
2023-08-12T03:06:18.824Z,100894.20
2023-08-12T03:08:50.259Z,100886.02
2023-08-12T03:11:20.810Z,100885.35
2023-08-12T03:13:51.639Z,100879.77
2023-08-12T03:16:23.229Z,100878.95
2023-08-12T03:18:54.598Z,100880.30
2023-08-12T03:21:25.257Z,100875.66
2023-08-12T03:23:56.107Z,100870.17
2023-08-12T03:26:27.342Z,100873.08
2023-08-12T03:28:58.233Z,100869.91
2023-08-12T03:31:28.933Z,100868.45
2023-08-12T03:33:59.582Z,100875.34
2023-08-12T03:36:30.229Z,100878.09
2023-08-12T03:39:00.897Z,100875.48
2023-08-12T03:41:32.172Z,100872.38
2023-08-12T03:44:02.923Z,100877.34
2023-08-12T03:46:34.133Z,100880.88
2023-08-12T03:49:05.899Z,100875.58
2023-08-12T03:51:37.222Z,100878.70
2023-08-12T03:54:08.769Z,100903.02
2023-08-12T03:56:39.671Z,100923.83
2023-08-12T03:59:10.435Z,100928.98
2023-08-12T04:01:41.936Z,100924.93
2023-08-12T04:04:14.564Z,100911.15
2023-08-12T04:06:45.494Z,100910.20
2023-08-12T04:09:16.566Z,100911.11
2023-08-12T04:11:47.477Z,100912.58
2023-08-12T04:14:18.131Z,100912.98
2023-08-12T04:16:49.317Z,100907.96
2023-08-12T04:19:20.355Z,100909.55
2023-08-12T04:21:51.849Z,100909.02
2023-08-12T04:24:22.550Z,100910.27
2023-08-12T04:26:53.161Z,100909.77
2023-08-12T04:29:24.187Z,100915.05
2023-08-12T04:31:54.765Z,100914.78
2023-08-12T04:34:25.989Z,100913.75
2023-08-12T04:36:57.154Z,100910.84
2023-08-12T04:39:28.488Z,100908.65
2023-08-12T04:41:59.541Z,100907.19
2023-08-12T04:44:30.284Z,100912.63
2023-08-12T04:47:01.280Z,100916.01
2023-08-12T04:49:32.408Z,100911.41
2023-08-12T04:52:03.573Z,100911.64
2023-08-12T04:54:34.603Z,100913.48
2023-08-12T04:57:06.811Z,100918.65
2023-08-12T04:59:38.177Z,100925.42
2023-08-12T05:02:09.034Z,100929.48
2023-08-12T05:04:40.914Z,100933.33
2023-08-12T05:07:11.816Z,100930.77
2023-08-12T05:09:44.986Z,100929.75
2023-08-12T05:12:16.615Z,100930.87
2023-08-12T05:14:47.795Z,100933.77
2023-08-12T05:17:18.964Z,100933.71
2023-08-12T05:19:49.540Z,100936.32
2023-08-12T05:22:20.675Z,100933.77
2023-08-12T05:24:51.372Z,100936.39
2023-08-12T05:27:22.389Z,100937.95
2023-08-12T05:29:53.745Z,100939.76
2023-08-12T05:32:24.639Z,100944.31
2023-08-12T05:34:55.879Z,100947.75
2023-08-12T05:37:26.426Z,100949.84
2023-08-12T05:39:57.386Z,100947.29
2023-08-12T05:42:28.494Z,100947.50
2023-08-12T05:44:59.075Z,100947.06
2023-08-12T05:47:29.951Z,100942.39
2023-08-12T05:50:00.676Z,100941.46
2023-08-12T05:52:31.879Z,100944.09
2023-08-12T05:55:02.951Z,100937.77
2023-08-12T05:57:33.507Z,100940.79
2023-08-12T06:00:04.621Z,100939.67
2023-08-12T06:02:35.424Z,100938.73
2023-08-12T06:05:07.326Z,100934.99
2023-08-12T06:07:38.359Z,100933.73
2023-08-12T06:10:10.946Z,100930.37
2023-08-12T06:12:41.637Z,100917.54
2023-08-12T06:15:13.606Z,100910.31
2023-08-12T06:17:44.425Z,100903.95
2023-08-12T06:20:16.513Z,100893.36
2023-08-12T06:22:47.470Z,100879.48
2023-08-12T06:25:18.214Z,100876.19
2023-08-12T06:27:49.142Z,100882.58
2023-08-12T06:30:19.795Z,100891.36
2023-08-12T06:32:50.678Z,100893.52
2023-08-12T06:35:22.367Z,100882.41
2023-08-12T06:37:53.545Z,100880.08
2023-08-12T06:40:24.803Z,100881.51
2023-08-12T06:42:55.890Z,100881.17
2023-08-12T06:45:26.537Z,100877.42
2023-08-12T06:47:57.178Z,100884.67
2023-08-12T06:50:28.576Z,100886.07
2023-08-12T06:52:59.302Z,100890.20
2023-08-12T06:55:30.047Z,100893.09
2023-08-12T06:58:00.789Z,100885.67
2023-08-12T07:00:31.801Z,100879.11
2023-08-12T07:03:02.334Z,100873.80
2023-08-12T07:05:33.680Z,100871.15
2023-08-12T07:08:04.552Z,100872.00
2023-08-12T07:10:35.420Z,100871.13
2023-08-12T07:13:06.379Z,100870.58
2023-08-12T07:15:37.009Z,100869.16
2023-08-12T07:18:08.904Z,100868.35
2023-08-12T07:20:39.944Z,100870.87
2023-08-12T07:23:10.935Z,100873.98
2023-08-12T07:25:42.062Z,100886.64
2023-08-12T07:28:12.913Z,100885.94
2023-08-12T07:30:43.791Z,100881.50
2023-08-12T07:33:14.827Z,100879.77
2023-08-12T07:35:45.745Z,100884.52
2023-08-12T07:38:16.679Z,100886.80
2023-08-12T07:40:47.879Z,100886.77
2023-08-12T07:43:18.996Z,100889.42
2023-08-12T07:46:07.609Z,100888.65
2023-08-12T07:48:40.088Z,100891.55
2023-08-12T07:51:10.796Z,100890.60
2023-08-12T07:53:41.620Z,100888.98
2023-08-12T07:56:12.283Z,100887.33
2023-08-12T07:58:43.680Z,100880.94
2023-08-12T08:01:14.932Z,100872.13
2023-08-12T08:03:46.059Z,100878.91
2023-08-12T08:06:16.782Z,100885.63
2023-08-12T08:08:47.345Z,100884.64
2023-08-12T08:11:18.573Z,100883.13
2023-08-12T08:13:49.790Z,100874.93
2023-08-12T08:16:20.754Z,100871.54
2023-08-12T08:18:51.981Z,100867.45
2023-08-12T08:21:22.758Z,100872.55
2023-08-12T08:23:53.535Z,100874.08
2023-08-12T08:26:24.389Z,100872.52
2023-08-12T08:28:55.245Z,100870.98
2023-08-12T08:31:26.244Z,100868.33
2023-08-12T08:33:57.268Z,100867.10
2023-08-12T08:36:28.000Z,100864.89
2023-08-12T08:38:58.677Z,100863.44
2023-08-12T08:41:32.511Z,100863.33
2023-08-12T08:44:09.255Z,100859.56
2023-08-12T08:46:40.783Z,100861.52
2023-08-12T08:49:13.034Z,100858.93
2023-08-12T08:51:45.293Z,100864.64
2023-08-12T08:54:17.467Z,100870.96
2023-08-12T08:56:58.277Z,100871.43
2023-08-12T08:59:34.733Z,100870.91
2023-08-12T09:02:06.911Z,100871.78
2023-08-12T09:04:38.369Z,100870.46
2023-08-12T09:07:10.054Z,100868.87
2023-08-12T09:09:43.991Z,100868.05
2023-08-12T09:12:16.438Z,100867.21
2023-08-12T09:14:47.576Z,100865.04
2023-08-12T09:17:18.249Z,100865.30
2023-08-12T09:19:49.156Z,100860.70
2023-08-12T09:22:21.658Z,100852.02
2023-08-12T09:24:59.951Z,100852.92
2023-08-12T09:27:32.537Z,100851.58
2023-08-12T09:30:06.922Z,100848.44
2023-08-12T09:32:39.910Z,100844.36
2023-08-12T09:35:19.599Z,100842.20
2023-08-12T09:37:51.622Z,100837.15
2023-08-12T09:40:22.556Z,100827.53
2023-08-12T09:42:54.024Z,100828.06
2023-08-12T09:45:27.209Z,100832.91
2023-08-12T09:47:58.651Z,100835.16
2023-08-12T09:50:29.933Z,100833.58
2023-08-12T09:53:00.513Z,100834.70
2023-08-12T09:55:33.856Z,100834.82
2023-08-12T09:58:08.683Z,100831.28
2023-08-12T10:00:42.573Z,100824.23
2023-08-12T10:03:15.583Z,100810.92
2023-08-12T10:05:47.427Z,100800.36
2023-08-12T10:08:20.312Z,100792.08
2023-08-12T10:10:59.524Z,100793.00
2023-08-12T10:13:39.425Z,100793.38
2023-08-12T10:16:10.751Z,100787.84
2023-08-12T10:18:42.245Z,100784.08
2023-08-12T10:21:14.860Z,100774.04
2023-08-12T10:23:47.836Z,100776.44
2023-08-12T10:26:19.506Z,100777.37
2023-08-12T10:28:53.021Z,100773.39
2023-08-12T10:31:25.024Z,100771.16
2023-08-12T10:33:56.054Z,100771.39
2023-08-12T10:36:28.112Z,100774.77
2023-08-12T10:39:00.037Z,100775.07
2023-08-12T10:41:31.661Z,100779.90
2023-08-12T10:44:07.364Z,100786.89
2023-08-12T10:46:39.284Z,100792.41
2023-08-12T10:49:11.248Z,100795.63
2023-08-12T10:51:47.956Z,100803.83
2023-08-12T10:54:27.984Z,100806.06
2023-08-12T10:57:15.853Z,100806.08
2023-08-12T11:00:00.051Z,100795.78
2023-08-12T11:02:34.979Z,100796.00
2023-08-12T11:05:10.168Z,100795.38
2023-08-12T11:07:44.204Z,100791.98
2023-08-12T11:10:17.602Z,100800.43
2023-08-12T11:12:56.216Z,100798.27
2023-08-12T11:15:35.223Z,100788.67
2023-08-12T11:18:09.045Z,100782.53
2023-08-12T11:20:40.252Z,100775.89
2023-08-12T11:23:11.911Z,100774.96
2023-08-12T11:25:45.221Z,100763.80
2023-08-12T11:28:15.979Z,100754.23
2023-08-12T11:30:46.934Z,100754.83
2023-08-12T11:33:21.195Z,100740.74
2023-08-12T11:35:52.397Z,100724.81
2023-08-12T11:38:23.134Z,100709.52
2023-08-12T11:40:53.893Z,100707.55
2023-08-12T11:43:26.389Z,100712.94
2023-08-12T11:45:58.720Z,100707.61
2023-08-12T11:48:30.840Z,100700.63
2023-08-12T11:51:01.779Z,100696.21
2023-08-12T11:53:32.790Z,100687.48
2023-08-12T11:56:04.473Z,100694.35
2023-08-12T11:58:51.652Z,100699.55
2023-08-12T12:01:24.698Z,100700.83
2023-08-12T12:03:56.194Z,100698.27
2023-08-12T12:06:35.047Z,100699.57
2023-08-12T12:09:10.883Z,100688.45
2023-08-12T12:11:42.751Z,100684.40
2023-08-12T12:14:14.099Z,100692.73
2023-08-12T12:16:46.392Z,100697.36
2023-08-12T12:19:21.818Z,100692.02
2023-08-12T12:21:55.070Z,100695.74
2023-08-12T12:24:30.892Z,100692.75
2023-08-12T12:27:02.237Z,100700.92
2023-08-12T12:29:33.275Z,100705.17
2023-08-12T12:32:04.120Z,100702.80
2023-08-12T12:34:34.822Z,100702.68
2023-08-12T12:37:05.773Z,100698.26
2023-08-12T12:39:37.061Z,100694.20
2023-08-12T12:42:07.822Z,100690.29
2023-08-12T12:44:38.785Z,100684.16
2023-08-12T12:47:11.965Z,100675.83
2023-08-12T12:49:44.077Z,100665.82
2023-08-12T12:52:15.125Z,100657.02
2023-08-12T12:54:45.970Z,100650.49
2023-08-12T12:57:17.002Z,100658.80
2023-08-12T12:59:47.737Z,100662.29
2023-08-12T13:02:18.770Z,100660.77
2023-08-12T13:04:51.196Z,100648.92
2023-08-12T13:07:22.036Z,100642.61
2023-08-12T13:09:53.209Z,100641.70
2023-08-12T13:12:24.067Z,100642.20
2023-08-12T13:14:54.766Z,100629.02
2023-08-12T13:17:27.059Z,100630.80
2023-08-12T13:19:57.657Z,100630.84
2023-08-12T13:22:28.269Z,100637.02
2023-08-12T13:24:58.996Z,100638.60
2023-08-12T13:27:30.481Z,100635.50
2023-08-12T13:30:01.376Z,100626.63
2023-08-12T13:32:32.154Z,100628.09
2023-08-12T13:35:03.022Z,100632.88
2023-08-12T13:37:34.778Z,100627.18
2023-08-12T13:40:06.322Z,100628.17
2023-08-12T13:42:37.005Z,100634.74
2023-08-12T13:45:08.905Z,100638.27
2023-08-12T13:47:39.308Z,100639.17
2023-08-12T13:50:11.833Z,100645.42
2023-08-12T13:52:42.847Z,100669.28
2023-08-12T13:55:14.022Z,100708.10
2023-08-12T13:57:45.124Z,100711.05
2023-08-12T14:00:16.740Z,100692.32
2023-08-12T14:02:49.566Z,100691.20
2023-08-12T14:05:21.044Z,100672.64
2023-08-12T14:07:51.619Z,100663.77
2023-08-12T14:10:22.497Z,100665.85
2023-08-12T14:12:54.038Z,100661.29
2023-08-12T14:15:25.472Z,100653.98
2023-08-12T14:17:56.787Z,100656.04
2023-08-12T14:20:27.525Z,100646.93
2023-08-12T14:22:58.177Z,100648.77
2023-08-12T14:25:28.850Z,100655.67
2023-08-12T14:27:59.505Z,100650.93
2023-08-12T14:30:30.286Z,100644.45
2023-08-12T14:33:01.113Z,100640.92
2023-08-12T14:35:31.908Z,100643.44
2023-08-12T14:38:03.131Z,100645.98
2023-08-12T14:40:35.388Z,100645.50
2023-08-12T14:43:06.173Z,100641.02
2023-08-12T14:45:36.859Z,100632.16
2023-08-12T14:48:08.714Z,100631.89
2023-08-12T14:50:40.796Z,100632.27
2023-08-12T14:53:11.880Z,100632.70
2023-08-12T14:55:42.685Z,100636.14
2023-08-12T14:58:13.258Z,100633.94
2023-08-12T15:00:44.538Z,100633.33
2023-08-12T15:03:15.766Z,100629.54
2023-08-12T15:05:46.819Z,100631.16
2023-08-12T15:08:18.093Z,100624.19
2023-08-12T15:10:48.755Z,100625.23
2023-08-12T15:13:19.356Z,100622.20
2023-08-12T15:15:51.520Z,100618.59
2023-08-12T15:18:22.305Z,100614.52
2023-08-12T15:20:53.611Z,100609.89
2023-08-12T15:23:24.363Z,100608.39
2023-08-12T15:25:55.400Z,100605.10
2023-08-12T15:28:26.108Z,100599.89
2023-08-12T15:30:57.026Z,100598.05
2023-08-12T15:33:27.960Z,100600.73
2023-08-12T15:35:58.716Z,100604.91
2023-08-12T15:38:29.775Z,100610.89
2023-08-12T15:41:00.697Z,100614.27
2023-08-12T15:43:31.247Z,100612.17
2023-08-12T15:46:02.029Z,100620.46
2023-08-12T15:48:32.778Z,100625.73
2023-08-12T15:51:04.115Z,100626.09
2023-08-12T15:53:35.478Z,100616.04
2023-08-12T15:56:06.378Z,100612.63
2023-08-12T15:58:37.879Z,100617.56
2023-08-12T16:01:09.303Z,100625.01
2023-08-12T16:03:40.388Z,100626.86
2023-08-12T16:06:11.416Z,100609.39
2023-08-12T16:08:42.127Z,100601.23
2023-08-12T16:11:13.010Z,100608.50
2023-08-12T16:13:43.676Z,100612.61
2023-08-12T16:16:14.717Z,100610.27
2023-08-12T16:18:45.607Z,100601.83
2023-08-12T16:21:17.075Z,100610.35
2023-08-12T16:23:47.835Z,100610.68
2023-08-12T16:26:20.827Z,100615.96
2023-08-12T16:28:53.206Z,100619.44
2023-08-12T16:31:24.570Z,100614.88
2023-08-12T16:34:01.677Z,100619.73
2023-08-12T16:36:30.758Z,100637.57
2023-08-12T16:39:01.722Z,100640.22
2023-08-12T16:41:33.009Z,100634.90
2023-08-12T16:44:03.995Z,100644.00
2023-08-12T16:46:35.228Z,100640.48
2023-08-12T16:49:07.037Z,100636.49
2023-08-12T16:51:37.711Z,100636.73
2023-08-12T16:54:09.934Z,100641.17
2023-08-12T16:56:40.707Z,100648.54
2023-08-12T16:59:11.473Z,100653.31
2023-08-12T17:01:42.173Z,100659.77
2023-08-12T17:04:13.299Z,100670.76
2023-08-12T17:06:44.178Z,100664.77
2023-08-12T17:09:17.118Z,100672.59
2023-08-12T17:11:48.457Z,100673.89
2023-08-12T17:14:20.441Z,100683.50
2023-08-12T17:16:51.984Z,100688.36
2023-08-12T17:19:22.789Z,100691.38
2023-08-12T17:21:53.454Z,100685.31
2023-08-12T17:24:24.488Z,100687.29
2023-08-12T17:26:55.168Z,100688.77
2023-08-12T17:29:26.403Z,100678.85
2023-08-12T17:31:58.304Z,100684.29
2023-08-12T17:34:29.076Z,100688.06
2023-08-12T17:36:59.661Z,100689.14
2023-08-12T17:39:30.904Z,100688.57
2023-08-12T17:42:01.703Z,100688.61
2023-08-12T17:44:33.138Z,100692.35
2023-08-12T17:47:03.795Z,100699.65
2023-08-12T17:49:35.125Z,100706.08
2023-08-12T17:52:08.758Z,100717.20
2023-08-12T17:54:41.995Z,100729.16
2023-08-12T17:57:12.741Z,100736.18
2023-08-12T17:59:43.382Z,100739.61
2023-08-12T18:02:14.313Z,100743.96
2023-08-12T18:04:45.545Z,100742.19
2023-08-12T18:07:16.393Z,100738.38
2023-08-12T18:09:47.388Z,100750.63
2023-08-12T18:12:18.750Z,100751.41
2023-08-12T18:14:49.685Z,100752.27
2023-08-12T18:17:20.998Z,100752.01
2023-08-12T18:19:51.905Z,100746.86
2023-08-12T18:22:23.229Z,100750.91
2023-08-12T18:24:54.216Z,100754.59
2023-08-12T18:27:25.386Z,100759.64
2023-08-12T18:29:57.531Z,100767.48
2023-08-12T18:32:29.543Z,100772.49
2023-08-12T18:35:00.606Z,100773.13
2023-08-12T18:37:31.315Z,100777.21
2023-08-12T18:40:01.840Z,100781.45
2023-08-12T18:42:33.158Z,100779.04
2023-08-12T18:45:04.669Z,100813.61
2023-08-12T18:47:35.798Z,100844.60
2023-08-12T18:50:07.446Z,100835.75
2023-08-12T18:52:38.376Z,100825.13
2023-08-12T18:55:11.342Z,100838.14
2023-08-12T18:57:41.972Z,100836.24
2023-08-12T19:00:16.333Z,100840.21
2023-08-12T19:02:47.369Z,100833.72
2023-08-12T19:05:18.559Z,100828.49
2023-08-12T19:07:49.455Z,100833.70
2023-08-12T19:10:20.863Z,100838.52
2023-08-12T19:12:52.297Z,100838.75
2023-08-12T19:15:23.654Z,100834.02
2023-08-12T19:17:54.895Z,100835.86
2023-08-12T19:20:25.760Z,100846.37
2023-08-12T19:22:56.804Z,100854.10
2023-08-12T19:25:27.909Z,100853.32
2023-08-12T19:27:59.108Z,100854.42
2023-08-12T19:30:29.754Z,100862.86
2023-08-12T19:33:00.529Z,100870.68
2023-08-12T19:35:31.356Z,100875.05
2023-08-12T19:38:02.182Z,100872.95
2023-08-12T19:40:32.819Z,100876.02
2023-08-12T19:43:03.917Z,100873.54
2023-08-12T19:45:34.757Z,100871.89
2023-08-12T19:48:06.278Z,100868.03
2023-08-12T19:50:37.827Z,100863.88
2023-08-12T19:53:08.868Z,100867.98
2023-08-12T19:55:39.858Z,100875.13
2023-08-12T19:58:10.644Z,100877.30
2023-08-12T20:00:42.759Z,100885.12
2023-08-12T20:03:13.531Z,100885.65
2023-08-12T20:05:44.992Z,100892.13
2023-08-12T20:08:15.848Z,100892.39
2023-08-12T20:10:46.402Z,100895.20
2023-08-12T20:13:17.180Z,100897.91
2023-08-12T20:15:52.548Z,100896.80
2023-08-12T20:18:23.271Z,100894.14
2023-08-12T20:20:55.236Z,100896.14
2023-08-12T20:23:25.841Z,100899.41
2023-08-12T20:25:56.426Z,100896.61
2023-08-12T20:28:27.195Z,100897.52
2023-08-12T20:30:57.796Z,100901.33
2023-08-12T20:33:28.557Z,100901.58
2023-08-12T20:35:59.766Z,100902.99
2023-08-12T20:38:30.593Z,100903.06
2023-08-12T20:41:02.450Z,100899.31
2023-08-12T20:43:33.443Z,100897.64
2023-08-12T20:46:06.222Z,100900.29
2023-08-12T20:48:36.925Z,100902.51
2023-08-12T20:51:08.042Z,100906.45
2023-08-12T20:53:39.115Z,100905.60
2023-08-12T20:56:09.934Z,100898.86
2023-08-12T20:58:40.578Z,100897.19
2023-08-12T21:01:11.209Z,100893.20
2023-08-12T21:03:41.973Z,100902.11
2023-08-12T21:06:13.062Z,100900.10
2023-08-12T21:08:44.052Z,100902.34
2023-08-12T21:11:14.645Z,100908.23
2023-08-12T21:13:45.760Z,100907.83
2023-08-12T21:16:16.340Z,100909.20
2023-08-12T21:18:47.410Z,100913.58
2023-08-12T21:21:18.313Z,100921.16
2023-08-12T21:23:49.500Z,100923.10
2023-08-12T21:26:20.105Z,100926.21
2023-08-12T21:28:50.706Z,100929.30
2023-08-12T21:31:21.653Z,100926.30
2023-08-12T21:33:52.749Z,100924.80
2023-08-12T21:36:23.391Z,100927.50
2023-08-12T21:38:54.055Z,100928.20
2023-08-12T21:41:25.291Z,100927.23
2023-08-12T21:43:56.217Z,100927.30
2023-08-12T21:46:27.442Z,100923.62
2023-08-12T21:48:58.331Z,100927.87
2023-08-12T21:51:29.401Z,100934.96
2023-08-12T21:54:00.287Z,100935.14
2023-08-12T21:56:31.080Z,100942.82
2023-08-12T21:59:01.856Z,100940.98
2023-08-12T22:01:33.543Z,100943.88
2023-08-12T22:04:04.849Z,100945.41
2023-08-12T22:06:36.034Z,100946.17
2023-08-12T22:09:07.517Z,100944.66
2023-08-12T22:11:38.623Z,100949.75
2023-08-12T22:14:09.412Z,100950.90
2023-08-12T22:16:40.057Z,100949.83
2023-08-12T22:19:11.221Z,100948.96
2023-08-12T22:21:41.829Z,100949.48
2023-08-12T22:24:12.584Z,100949.89
2023-08-12T22:26:43.264Z,100949.12
2023-08-12T22:29:15.410Z,100948.45
2023-08-12T22:31:46.091Z,100942.20
2023-08-12T22:34:17.739Z,100939.30
2023-08-12T22:36:48.440Z,100944.13
2023-08-12T22:39:19.046Z,100945.23
2023-08-12T22:41:49.712Z,100946.75
2023-08-12T22:44:20.566Z,100952.08
2023-08-12T22:46:51.466Z,100947.31
2023-08-12T22:49:21.989Z,100953.68
2023-08-12T22:51:52.873Z,100949.00
2023-08-12T22:54:24.417Z,100952.26
2023-08-12T22:56:55.154Z,100953.39
2023-08-12T22:59:25.885Z,100950.46
2023-08-12T23:01:56.499Z,100951.17
2023-08-12T23:04:27.879Z,100947.21
2023-08-12T23:06:58.658Z,100952.33
2023-08-12T23:09:29.254Z,100957.30
2023-08-12T23:12:00.346Z,100955.65
2023-08-12T23:14:31.094Z,100956.61
2023-08-12T23:17:01.683Z,100955.86
2023-08-12T23:19:32.305Z,100957.73
2023-08-12T23:22:03.313Z,100955.09
2023-08-12T23:24:34.415Z,100953.71
2023-08-12T23:27:05.892Z,100955.73
2023-08-12T23:29:36.857Z,100957.54
2023-08-12T23:32:09.319Z,100956.05
2023-08-12T23:34:40.434Z,100958.95
2023-08-12T23:37:11.501Z,100963.64
2023-08-12T23:39:42.461Z,100965.29
2023-08-12T23:42:13.699Z,100962.36
2023-08-12T23:44:44.623Z,100967.64
2023-08-12T23:47:15.454Z,100965.00
2023-08-12T23:49:45.986Z,100969.00
2023-08-12T23:52:16.945Z,100966.91
2023-08-12T23:54:47.846Z,100968.15
2023-08-12T23:57:18.665Z,100967.80
2023-08-12T23:59:49.521Z,100961.42
